West Chester, Iowa
Current Conditions -  °F | °C
As of 10:55 AM on Saturday 22 Nov 2014 (Local Time) from KAWG Reporting Station
Haze Haze  
Wind Chill: 43°   Ceiling: 600
Heat Index: 48°   Visibility: 4mi
Dew Point: 48°   Wind: 14mph
Humidity: 100%   Direction: 210°SSW
Pressure: 29.9"   Gusts: NA
Location:  41.34°N, 91.82°W
Report Text: KAWG 221655Z AUTO 21012KT 4SM BR BKN006 BKN009 OVC013 09/09 A2990 RMK AO2
Loading
Personal Weather Stations






























Interactive Weather Map New forecast layout! Learn more

10-Day Weather Forecast

Advertisements
Track Severe Weather on mobile